Time;durP1;ratioP1;P1;durP2;ratioP2;P2;SDS_P1;SDS_P2;PMS_P1;PMS_P2;Temp;Humidity;BMP_temperature;BMP_pressure;BME280_temperature;BME280_humidity;BME280_pressure;Samples;Min_cycle;Max_cycle;Signal;HPM_P1;HPM_P2
2021/05/27 00:00:04;;;;;;;3.60;1.45;;;;;;;13.69;51.29;99876.19;4444029;32;35244;-87
2021/05/27 00:02:31;;;;;;;2.28;1.10;;;;;;;13.76;51.26;99872.63;4456244;32;32919;-87
2021/05/27 00:04:59;;;;;;;2.53;1.37;;;;;;;13.81;51.44;99870.78;4456628;32;33508;-87
2021/05/27 00:07:28;;;;;;;5.00;1.45;;;;;;;13.81;51.23;99873.38;4443924;32;33858;-87
2021/05/27 00:09:56;;;;;;;2.72;1.00;;;;;;;13.99;51.12;99875.81;4443591;32;34253;-87
2021/05/27 00:12:24;;;;;;;3.50;1.12;;;;;;;13.91;51.60;99872.41;4443748;32;33694;-87
2021/05/27 00:14:52;;;;;;;5.32;0.95;;;;;;;13.75;51.67;99870.87;4443610;32;35180;-87
2021/05/27 00:17:19;;;;;;;3.60;1.50;;;;;;;13.78;51.72;99872.59;4443380;32;34411;-87
2021/05/27 00:19:48;;;;;;;4.12;1.48;;;;;;;13.68;51.85;99873.56;4470190;32;34922;-87
2021/05/27 00:22:15;;;;;;;6.32;1.37;;;;;;;13.83;52.24;99871.66;4456259;32;33749;-87
2021/05/27 00:24:43;;;;;;;4.43;1.30;;;;;;;13.74;52.06;99869.13;4456276;32;34590;-87
2021/05/27 00:27:11;;;;;;;5.68;1.30;;;;;;;13.77;52.09;99878.69;4443541;32;34321;-87
2021/05/27 00:29:39;;;;;;;5.62;1.33;;;;;;;13.64;52.25;99877.97;4456286;32;35353;-87
2021/05/27 00:32:06;;;;;;;4.30;1.45;;;;;;;13.72;51.93;99875.25;4443084;32;33338;-87
2021/05/27 00:34:34;;;;;;;4.32;1.23;;;;;;;13.64;52.03;99882.34;4443630;32;35121;-86
2021/05/27 00:37:02;;;;;;;4.37;1.35;;;;;;;13.64;52.17;99883.22;4456219;32;34367;-87
2021/05/27 00:39:30;;;;;;;12.05;2.47;;;;;;;13.50;51.95;99879.87;4430641;32;33432;-86
2021/05/27 00:41:58;;;;;;;2.75;1.40;;;;;;;13.44;52.00;99883.41;4443537;32;32791;-87
2021/05/27 00:44:28;;;;;;;3.28;1.30;;;;;;;13.48;51.86;99889.44;4443205;32;35070;-87
2021/05/27 00:46:59;;;;;;;3.85;1.30;;;;;;;13.45;51.87;99884.28;4456151;32;35672;-87
2021/05/27 00:49:28;;;;;;;2.72;1.00;;;;;;;13.37;51.85;99884.34;4443553;32;33851;-87
2021/05/27 00:51:55;;;;;;;2.72;1.17;;;;;;;13.45;51.60;99887.75;4443416;32;33528;-87
2021/05/27 00:54:23;;;;;;;4.55;1.17;;;;;;;13.65;51.04;99874.47;4442793;32;33906;-87
2021/05/27 00:56:53;;;;;;;3.80;1.40;;;;;;;13.62;51.52;99879.72;4456398;32;34509;-87
2021/05/27 00:59:21;;;;;;;2.87;1.48;;;;;;;13.47;51.73;99874.69;4456253;32;34041;-87
2021/05/27 01:01:51;;;;;;;3.22;1.55;;;;;;;13.62;51.76;99868.41;4455910;32;34287;-87
2021/05/27 01:04:20;;;;;;;3.55;1.20;;;;;;;13.57;52.16;99871.94;4470019;32;35035;-86
2021/05/27 01:06:48;;;;;;;3.50;0.95;;;;;;;13.35;52.44;99877.41;4455702;32;34543;-86
2021/05/27 01:09:15;;;;;;;3.45;1.67;;;;;;;13.16;53.03;99875.84;4430072;32;33575;-87
2021/05/27 01:11:43;;;;;;;4.82;1.15;;;;;;;13.24;53.15;99876.66;4455812;32;33457;-87
2021/05/27 01:14:12;;;;;;;4.00;1.37;;;;;;;13.24;53.11;99877.50;4455935;32;33907;-87
2021/05/27 01:16:40;;;;;;;2.10;1.27;;;;;;;13.16;52.97;99875.84;4455974;32;35795;-86
2021/05/27 01:19:08;;;;;;;3.42;1.33;;;;;;;13.18;53.15;99871.47;4455885;32;34080;-86
2021/05/27 01:21:43;;;;;;;5.45;1.48;;;;;;;13.24;52.74;99871.44;4442546;32;32810;-86
2021/05/27 01:24:13;;;;;;;3.72;1.30;;;;;;;13.26;52.57;99870.56;4443358;32;35193;-86
2021/05/27 01:26:42;;;;;;;2.92;1.08;;;;;;;13.21;52.35;99866.25;4455630;32;34410;-87
2021/05/27 01:29:10;;;;;;;2.15;1.17;;;;;;;13.26;52.28;99870.56;4442505;32;34632;-87
2021/05/27 01:31:40;;;;;;;4.55;1.50;;;;;;;13.30;52.34;99871.37;4455584;32;33975;-86
2021/05/27 01:34:10;;;;;;;3.60;1.00;;;;;;;13.32;52.58;99874.81;4443103;32;33820;-87
2021/05/27 01:36:47;;;;;;;3.65;1.33;;;;;;;13.24;52.50;99872.28;4442604;32;35790;-87
2021/05/27 01:39:15;;;;;;;2.70;1.33;;;;;;;13.07;53.22;99858.53;4443423;32;33940;-85
2021/05/27 01:41:43;;;;;;;2.65;1.00;;;;;;;13.07;53.08;99865.50;4455259;32;33598;-86
2021/05/27 01:44:10;;;;;;;4.95;1.40;;;;;;;13.21;52.51;99868.84;4444949;32;34278;-86
2021/05/27 01:46:38;;;;;;;7.55;1.70;;;;;;;13.13;52.88;99866.31;4471467;32;34531;-86
2021/05/27 01:49:06;;;;;;;4.12;1.40;;;;;;;12.97;53.19;99866.44;4444815;32;34043;-86
2021/05/27 01:51:35;;;;;;;5.53;1.40;;;;;;;12.95;53.36;99857.75;4432382;32;32904;-86
2021/05/27 01:54:04;;;;;;;3.45;1.42;;;;;;;13.02;53.37;99867.25;4444868;32;33753;-86
2021/05/27 01:56:32;;;;;;;3.87;1.50;;;;;;;13.05;52.96;99859.41;4457599;32;35817;-86
2021/05/27 01:59:04;;;;;;;4.00;0.93;;;;;;;13.10;52.69;99860.25;4457530;32;33993;-86
2021/05/27 02:01:32;;;;;;;2.67;1.30;;;;;;;12.88;53.36;99857.78;4457686;32;33581;-86
2021/05/27 02:04:01;;;;;;;5.05;1.20;;;;;;;12.88;53.40;99860.41;4444350;32;33417;-86
2021/05/27 02:06:28;;;;;;;3.65;1.67;;;;;;;12.83;53.92;99856.13;4457520;32;34531;-86
2021/05/27 02:09:09;;;;;;;4.57;1.50;;;;;;;12.77;54.23;99853.53;4444960;32;34019;-86
2021/05/27 02:11:45;;;;;;;5.28;1.37;;;;;;;12.91;53.77;99857.75;4459284;32;33172;-86
2021/05/27 02:14:19;;;;;;;3.72;1.20;;;;;;;12.76;54.06;99857.91;4445326;32;33868;-86
2021/05/27 02:16:47;;;;;;;5.75;1.35;;;;;;;12.71;54.41;99853.59;4444885;32;34371;-86
2021/05/27 02:19:15;;;;;;;3.17;0.88;;;;;;;12.64;54.30;99850.19;4444797;32;34295;-86
2021/05/27 02:21:42;;;;;;;4.72;1.65;;;;;;;12.73;53.94;99846.63;4431896;32;32120;-86
2021/05/27 02:24:11;;;;;;;2.45;1.08;;;;;;;12.78;53.86;99850.06;4444453;32;34513;-86
2021/05/27 02:26:40;;;;;;;4.78;1.20;;;;;;;12.64;54.22;99852.78;4444563;32;35195;-86
2021/05/27 02:29:08;;;;;;;2.28;1.27;;;;;;;12.73;54.06;99851.84;4457266;32;33983;-86
2021/05/27 02:31:38;;;;;;;5.90;1.42;;;;;;;12.69;53.87;99850.97;4431994;32;33769;-86
2021/05/27 02:34:07;;;;;;;2.22;1.20;;;;;;;12.66;54.39;99856.25;4444545;32;33574;-86
2021/05/27 02:36:36;;;;;;;3.03;1.65;;;;;;;12.65;54.58;99859.72;4457405;32;34328;-86
2021/05/27 02:39:06;;;;;;;2.80;1.27;;;;;;;12.56;54.62;99862.41;4457348;32;34771;-86
2021/05/27 02:41:34;;;;;;;3.83;1.23;;;;;;;12.73;54.04;99857.06;4444748;32;33539;-87
2021/05/27 02:44:03;;;;;;;4.62;1.40;;;;;;;12.70;53.68;99852.72;4457183;32;33865;-86
2021/05/27 02:46:31;;;;;;;3.25;1.12;;;;;;;12.67;53.58;99844.91;4444700;32;34427;-86
2021/05/27 02:48:59;;;;;;;2.95;1.05;;;;;;;12.56;53.79;99844.16;4444077;32;33398;-86
2021/05/27 02:51:28;;;;;;;4.53;1.37;;;;;;;12.71;53.45;99846.66;4456771;32;32940;-86
2021/05/27 02:53:59;;;;;;;4.03;1.40;;;;;;;12.70;53.71;99847.50;4444688;32;34345;-86
2021/05/27 02:56:28;;;;;;;4.12;1.10;;;;;;;12.55;54.12;99862.44;4457187;32;34765;-86
2021/05/27 02:58:56;;;;;;;3.40;1.25;;;;;;;12.40;54.68;99867.75;4444423;32;33540;-86
2021/05/27 03:01:24;;;;;;;3.25;1.60;;;;;;;12.29;54.08;99865.19;4444417;32;34541;-86
2021/05/27 03:03:52;;;;;;;2.75;1.08;;;;;;;12.37;53.79;99858.19;4456970;32;33710;-86
2021/05/27 03:06:20;;;;;;;2.37;1.20;;;;;;;12.57;53.32;99858.94;4444221;32;34391;-86
2021/05/27 03:08:49;;;;;;;2.72;1.02;;;;;;;12.56;53.30;99856.31;4457360;32;34173;-85
2021/05/27 03:11:19;;;;;;;2.20;0.95;;;;;;;12.47;53.55;99854.66;4457569;32;32924;-85
2021/05/27 03:13:49;;;;;;;4.95;1.08;;;;;;;12.51;53.37;99851.13;4456971;32;34524;-85
2021/05/27 03:16:18;;;;;;;2.53;1.20;;;;;;;12.69;53.31;99844.94;4443863;32;33283;-86
2021/05/27 03:18:45;;;;;;;5.37;1.25;;;;;;;12.70;53.55;99842.28;4456706;32;34115;-85
2021/05/27 03:21:13;;;;;;;3.42;1.10;;;;;;;12.70;54.14;99844.03;4456792;32;33281;-85
2021/05/27 03:23:41;;;;;;;3.47;1.27;;;;;;;12.61;54.71;99846.72;4456852;32;33868;-85
2021/05/27 03:26:09;;;;;;;2.50;1.30;;;;;;;12.66;54.43;99845.81;4456759;32;34394;-85
2021/05/27 03:28:37;;;;;;;2.62;1.10;;;;;;;12.68;54.80;99840.56;4443883;32;34077;-85
2021/05/27 03:31:06;;;;;;;2.45;1.00;;;;;;;12.58;54.86;99845.00;4444418;32;33449;-85
2021/05/27 03:33:35;;;;;;;2.25;1.02;;;;;;;12.78;54.64;99850.06;4444479;32;33711;-85
2021/05/27 03:36:03;;;;;;;4.95;1.80;;;;;;;12.82;53.90;99841.31;4443875;32;34386;-85
2021/05/27 03:38:31;;;;;;;3.70;1.30;;;;;;;12.60;54.95;99845.00;4431558;32;33541;-85
2021/05/27 03:41:00;;;;;;;3.85;1.20;;;;;;;12.61;55.08;99846.72;4456548;32;34614;-85
2021/05/27 03:43:27;;;;;;;2.37;1.42;;;;;;;12.79;54.40;99852.66;4443772;32;33468;-85
2021/05/27 03:45:56;;;;;;;3.40;1.25;;;;;;;12.87;54.47;99853.47;4470579;32;34506;-85
2021/05/27 03:48:24;;;;;;;3.85;1.15;;;;;;;12.94;55.01;99849.03;4444119;32;33506;-85
2021/05/27 03:50:52;;;;;;;2.90;1.12;;;;;;;13.11;54.10;99855.00;4456758;32;34073;-86
2021/05/27 03:53:20;;;;;;;2.87;1.40;;;;;;;13.05;54.12;99851.56;4444115;32;35056;-85
2021/05/27 03:55:49;;;;;;;2.90;1.00;;;;;;;13.11;53.55;99854.16;4431034;32;35014;-86
2021/05/27 04:01:03;;;;;;;3.25;1.60;;;;;;;13.26;53.42;99860.09;4470427;32;33416;-85
2021/05/27 04:07:08;;;;;;;3.17;1.20;;;;;;;13.35;52.94;99859.13;4444369;32;35179;-86
2021/05/27 04:09:07;;;;;;;3.17;0.88;;;;;;;13.52;52.20;99855.47;4458491;32;34749;-85
2021/05/27 04:11:34;;;;;;;5.15;1.67;;;;;;;13.59;52.76;99851.03;4456505;32;34173;-85
2021/05/27 04:14:02;;;;;;;3.37;1.17;;;;;;;13.77;52.39;99848.19;4470394;32;34505;-86
2021/05/27 04:16:30;;;;;;;4.20;1.10;;;;;;;13.84;51.84;99854.19;4456025;32;33935;-86
2021/05/27 04:18:58;;;;;;;2.42;1.00;;;;;;;13.88;51.89;99861.97;4443278;32;34127;-86
2021/05/27 04:21:25;;;;;;;2.35;0.95;;;;;;;13.90;51.50;99857.63;4440590;32;94137;-86
2021/05/27 04:23:53;;;;;;;2.55;1.80;;;;;;;14.01;51.50;99863.56;4430416;32;34574;-86
2021/05/27 04:26:21;;;;;;;6.57;0.93;;;;;;;14.07;51.33;99858.25;4456197;32;36063;-85
2021/05/27 04:28:49;;;;;;;3.50;1.40;;;;;;;14.15;50.61;99859.00;4456404;32;34023;-85
2021/05/27 04:31:18;;;;;;;4.40;1.08;;;;;;;14.18;51.07;99858.97;4470301;32;34082;-85
2021/05/27 04:33:46;;;;;;;3.72;1.02;;;;;;;14.18;50.83;99861.59;4455893;32;34559;-85
2021/05/27 04:36:15;;;;;;;3.87;1.30;;;;;;;14.39;50.83;99859.59;4470048;32;34800;-86
2021/05/27 04:38:44;;;;;;;3.08;1.00;;;;;;;14.38;50.06;99868.34;4456117;32;34653;-85
2021/05/27 04:41:12;;;;;;;2.15;1.10;;;;;;;14.64;49.96;99858.34;4456163;32;33296;-85
2021/05/27 04:43:40;;;;;;;3.33;1.08;;;;;;;14.63;49.71;99864.44;4443247;32;33534;-85
2021/05/27 04:46:09;;;;;;;2.65;1.15;;;;;;;14.70;49.70;99866.09;4455710;32;35752;-85
2021/05/27 04:48:37;;;;;;;4.25;1.15;;;;;;;14.78;48.56;99865.09;4455906;32;35218;-85
2021/05/27 04:51:05;;;;;;;3.50;1.10;;;;;;;14.87;49.11;99864.06;4455988;32;33569;-86
2021/05/27 04:53:33;;;;;;;2.05;0.93;;;;;;;15.07;47.14;99861.13;4442943;32;33222;-85
2021/05/27 04:56:01;;;;;;;1.58;0.80;;;;;;;14.98;47.51;99871.72;4455548;32;35327;-85
2021/05/27 04:58:30;;;;;;;1.85;1.05;;;;;;;15.10;47.25;99859.28;4455810;32;35132;-85
2021/05/27 05:00:58;;;;;;;3.70;1.12;;;;;;;15.27;46.75;99859.00;4455884;32;33441;-85
2021/05/27 05:03:27;;;;;;;4.15;1.17;;;;;;;15.43;46.60;99869.16;4455913;32;34593;-85
2021/05/27 05:05:55;;;;;;;3.17;0.88;;;;;;;15.54;46.62;99871.63;4442999;32;34907;-85
2021/05/27 05:08:23;;;;;;;1.87;1.00;;;;;;;15.61;45.55;99870.63;4443029;32;34089;-85
2021/05/27 05:10:51;;;;;;;2.58;1.20;;;;;;;15.75;45.89;99867.72;4455787;32;34856;-85
2021/05/27 05:13:19;;;;;;;1.80;0.98;;;;;;;15.95;45.37;99861.16;4469863;32;34721;-87
2021/05/27 05:15:49;;;;;;;6.62;1.80;;;;;;;15.88;45.96;99863.97;4455960;32;34142;-87
2021/05/27 05:18:16;;;;;;;4.90;1.60;;;;;;;16.24;45.24;99863.16;4444860;32;34847;-87
2021/05/27 05:20:48;;;;;;;5.55;1.20;;;;;;;16.27;44.59;99863.09;4441942;32;33376;-86
2021/05/27 05:23:17;;;;;;;;;;;;;;;16.30;44.38;99863.03;4457444;32;33871;-86
2021/05/27 05:25:44;;;;;;;3.12;1.40;;;;;;;16.44;44.39;99857.47;4456053;32;34912;-87
2021/05/27 05:28:12;;;;;;;3.58;1.48;;;;;;;16.40;45.05;99868.94;4458116;32;34591;-88
2021/05/27 05:30:41;;;;;;;2.50;1.08;;;;;;;16.40;45.74;99864.56;4467529;32;34542;-86
2021/05/27 05:33:09;;;;;;;5.45;1.40;;;;;;;16.43;44.54;99867.09;4459210;32;33823;-87
2021/05/27 05:35:37;;;;;;;3.12;1.00;;;;;;;16.81;43.52;99860.97;4457569;32;35804;-87
2021/05/27 05:38:05;;;;;;;4.32;1.23;;;;;;;16.89;43.45;99864.28;4457554;32;35267;-86
2021/05/27 05:40:34;;;;;;;2.83;1.20;;;;;;;16.87;43.76;99869.59;4457329;32;33685;-87
2021/05/27 05:43:02;;;;;;;3.20;1.30;;;;;;;17.20;42.30;99869.63;4444554;32;33606;-86
2021/05/27 05:45:30;;;;;;;3.28;1.30;;;;;;;17.02;43.82;99876.22;4444681;32;34720;-86
2021/05/27 05:47:59;;;;;;;2.35;1.10;;;;;;;17.08;44.42;99868.19;4457356;32;35358;-86
2021/05/27 05:50:48;;;;;;;3.25;1.55;;;;;;;17.59;43.54;99879.97;4471422;32;33832;-85
2021/05/27 05:53:20;;;;;;;2.28;1.10;;;;;;;17.30;44.79;99881.66;4446962;32;35006;-85
2021/05/27 05:55:49;;;;;;;3.50;1.77;;;;;;;17.50;42.12;99876.69;4444818;32;34428;-85
2021/05/27 05:58:18;;;;;;;5.55;1.40;;;;;;;17.41;42.81;99874.31;4471583;32;33977;-86
2021/05/27 06:00:46;;;;;;;5.37;1.50;;;;;;;17.59;42.17;99881.75;4457583;32;34188;-85
2021/05/27 06:03:14;;;;;;;3.37;1.60;;;;;;;17.84;41.96;99880.19;4457946;32;34548;-85
2021/05/27 06:05:43;;;;;;;2.70;1.52;;;;;;;17.91;40.36;99881.72;4457832;32;34759;-85
2021/05/27 06:08:11;;;;;;;3.92;1.48;;;;;;;18.04;40.11;99885.72;4472036;32;35183;-86
2021/05/27 06:10:39;;;;;;;4.45;1.17;;;;;;;18.01;39.22;99885.81;4457844;32;33281;-85
2021/05/27 06:13:06;;;;;;;2.53;1.50;;;;;;;18.13;38.99;99881.97;4457174;32;34344;-82
2021/05/27 06:15:36;;;;;;;7.10;1.50;;;;;;;18.21;40.23;99891.34;4457648;32;34480;-87
2021/05/27 06:18:04;;;;;;;1.73;1.12;;;;;;;18.44;40.37;99882.78;4471483;32;34083;-86
2021/05/27 06:20:32;;;;;;;3.22;1.40;;;;;;;18.75;38.91;99878.31;4457705;32;33476;-85
2021/05/27 06:23:00;;;;;;;2.10;1.20;;;;;;;18.80;39.67;99875.53;4444788;32;33801;-85
2021/05/27 06:25:28;;;;;;;5.30;1.40;;;;;;;18.70;41.12;99872.31;4471371;32;34347;-85
2021/05/27 06:27:56;;;;;;;1.75;1.08;;;;;;;18.79;39.56;99873.78;4444004;32;33928;-85
2021/05/27 06:30:26;;;;;;;1.27;0.95;;;;;;;19.06;37.52;99872.91;4457541;32;33209;-85
2021/05/27 06:32:54;;;;;;;3.83;0.88;;;;;;;19.19;37.85;99871.56;4471434;32;33778;-85
2021/05/27 06:35:22;;;;;;;6.00;0.98;;;;;;;19.32;37.39;99867.59;4457416;32;34341;-85
2021/05/27 06:37:50;;;;;;;3.25;0.75;;;;;;;19.61;38.99;99861.34;4444960;32;35020;-85
2021/05/27 06:40:23;;;;;;;1.85;1.15;;;;;;;19.77;39.05;99861.63;4457398;32;34599;-85
2021/05/27 06:42:51;;;;;;;3.83;1.00;;;;;;;20.00;39.07;99870.41;4471360;32;35253;-84
2021/05/27 06:45:19;;;;;;;1.77;1.00;;;;;;;20.19;38.10;99870.59;4457594;32;35262;-85
2021/05/27 06:47:49;;;;;;;2.33;1.10;;;;;;;20.13;39.40;99862.91;4471272;32;34092;-84
2021/05/27 06:50:32;;;;;;;3.10;1.30;;;;;;;20.53;38.06;99865.75;4444974;32;33550;-85
2021/05/27 06:53:12;;;;;;;2.97;1.20;;;;;;;20.61;40.47;99873.38;4456852;32;34710;-84
2021/05/27 06:55:42;;;;;;;3.35;1.30;;;;;;;20.73;38.40;99872.88;4465567;32;34376;-85
2021/05/27 06:58:10;;;;;;;4.97;1.87;;;;;;;20.81;40.14;99874.31;4469385;32;34281;-85
2021/05/27 07:00:39;;;;;;;4.10;1.45;;;;;;;20.99;39.82;99877.97;4471232;32;33353;-85
2021/05/27 07:03:08;;;;;;;3.25;1.30;;;;;;;20.97;40.49;99876.34;4470825;32;34613;-85
2021/05/27 07:05:36;;;;;;;5.43;1.60;;;;;;;21.04;40.25;99873.34;4444563;32;34549;-85
2021/05/27 07:08:06;;;;;;;3.90;1.42;;;;;;;21.26;40.00;99873.34;4444470;32;33626;-85
2021/05/27 07:10:34;;;;;;;2.87;1.20;;;;;;;21.51;39.75;99887.25;4456714;32;34244;-85
2021/05/27 07:13:06;;;;;;;2.53;1.00;;;;;;;21.66;39.22;99875.97;4457683;32;33841;-85
2021/05/27 07:15:35;;;;;;;3.72;1.30;;;;;;;21.82;37.82;99881.47;4444763;32;34688;-85
2021/05/27 07:18:04;;;;;;;2.65;1.10;;;;;;;22.09;38.04;99882.91;4457089;32;33469;-84
2021/05/27 07:20:33;;;;;;;4.32;1.48;;;;;;;22.22;36.32;99874.34;4456745;32;33398;-85
2021/05/27 07:23:01;;;;;;;2.85;1.08;;;;;;;22.22;36.32;99877.00;4457231;32;33903;-85
2021/05/27 07:25:29;;;;;;;2.62;1.12;;;;;;;22.21;36.89;99867.31;4470963;32;34560;-84
2021/05/27 07:27:57;;;;;;;2.53;0.90;;;;;;;22.38;36.32;99860.34;4471048;32;34130;-85
2021/05/27 07:30:26;;;;;;;2.95;0.90;;;;;;;22.18;36.69;99859.50;4469992;32;33276;-85
2021/05/27 07:32:55;;;;;;;3.33;1.00;;;;;;;22.31;35.75;99858.91;4457079;32;33222;-85
2021/05/27 07:35:25;;;;;;;2.10;1.12;;;;;;;22.37;38.01;99862.13;4456922;32;34504;-85
2021/05/27 07:37:54;;;;;;;3.70;1.02;;;;;;;22.69;37.41;99858.84;4470053;32;33984;-85
2021/05/27 07:40:22;;;;;;;2.03;0.90;;;;;;;22.82;35.47;99862.59;4455725;32;34180;-85
2021/05/27 07:42:50;;;;;;;4.90;1.00;;;;;;;22.87;35.79;99857.06;4470025;32;33865;-85
2021/05/27 07:45:18;;;;;;;3.85;1.15;;;;;;;22.84;35.41;99852.78;4469776;32;34365;-84
2021/05/27 07:47:46;;;;;;;2.62;1.08;;;;;;;23.00;36.20;99858.22;4457019;32;34830;-85
2021/05/27 07:50:14;;;;;;;3.40;1.00;;;;;;;23.26;36.67;99860.41;4470689;32;34237;-86
2021/05/27 07:52:41;;;;;;;4.97;1.27;;;;;;;23.17;35.22;99858.22;4467296;32;34799;-85
2021/05/27 07:55:11;;;;;;;2.17;1.10;;;;;;;23.23;35.28;99852.59;4470747;32;35401;-85
2021/05/27 07:57:38;;;;;;;3.95;0.90;;;;;;;23.39;36.26;99853.56;4470939;32;34048;-85
2021/05/27 08:00:08;;;;;;;2.00;0.73;;;;;;;23.60;35.77;99853.38;4456968;32;33362;-84
2021/05/27 08:02:42;;;;;;;1.60;0.85;;;;;;;23.53;34.83;99847.56;4445177;32;34041;-85
2021/05/27 08:05:10;;;;;;;2.70;0.80;;;;;;;23.38;35.94;99849.19;4456593;32;34233;-84
2021/05/27 08:07:38;;;;;;;2.22;0.90;;;;;;;23.38;34.14;99854.50;4443961;32;33442;-84
2021/05/27 08:10:08;;;;;;;2.47;0.75;;;;;;;23.53;34.32;99842.25;4456888;32;33370;-85
2021/05/27 08:12:36;;;;;;;4.47;0.90;;;;;;;23.78;34.88;99855.06;4456784;32;33808;-86
2021/05/27 08:15:05;;;;;;;3.17;1.10;;;;;;;23.10;36.79;99848.00;4444041;32;34442;-85
2021/05/27 08:17:33;;;;;;;2.55;0.98;;;;;;;23.47;35.94;99843.41;4456705;32;34409;-85
2021/05/27 08:20:04;;;;;;;2.87;0.85;;;;;;;23.40;35.69;99847.31;4444263;32;33813;-85
2021/05/27 08:22:31;;;;;;;1.92;0.70;;;;;;;23.70;35.34;99844.00;4454953;32;33827;-84
2021/05/27 08:24:59;;;;;;;1.75;1.02;;;;;;;23.58;36.44;99839.34;4441034;32;34389;-83
2021/05/27 08:27:27;;;;;;;4.05;1.25;;;;;;;23.79;36.00;99851.47;4466173;32;34400;-83
2021/05/27 08:29:54;;;;;;;3.15;1.00;;;;;;;23.86;32.27;99840.44;4470415;32;33439;-83
2021/05/27 08:32:22;;;;;;;3.58;1.02;;;;;;;23.82;34.24;99859.28;4470462;32;33964;-85
2021/05/27 08:34:50;;;;;;;2.90;1.00;;;;;;;23.52;32.95;99856.44;4470609;32;36282;-85
2021/05/27 08:37:17;;;;;;;4.05;1.25;;;;;;;23.51;35.87;99858.22;4470484;32;33942;-86
2021/05/27 08:39:45;;;;;;;6.37;1.10;;;;;;;23.27;36.32;99859.44;4469133;32;33256;-84
2021/05/27 08:42:13;;;;;;;2.78;0.85;;;;;;;23.46;35.91;99864.72;4456579;32;34031;-84
2021/05/27 08:44:41;;;;;;;1.12;0.60;;;;;;;23.76;34.07;99852.50;4469278;32;34448;-84
2021/05/27 08:47:09;;;;;;;3.65;0.82;;;;;;;23.90;35.14;99857.06;4469069;32;34792;-85
2021/05/27 08:49:37;;;;;;;2.65;1.00;;;;;;;24.08;35.88;99862.28;4468363;32;33329;-85
2021/05/27 08:52:05;;;;;;;3.03;0.82;;;;;;;23.84;35.10;99857.41;4457102;32;33717;-85
2021/05/27 08:54:33;;;;;;;1.62;0.70;;;;;;;24.13;33.66;99854.06;4470967;32;34732;-86
2021/05/27 08:57:04;;;;;;;2.87;0.75;;;;;;;24.23;33.45;99844.62;4472004;32;33892;-85
2021/05/27 08:59:32;;;;;;;1.27;0.70;;;;;;;24.30;33.83;99848.66;4467067;32;33228;-85
2021/05/27 09:02:04;;;;;;;1.55;0.90;;;;;;;24.35;33.53;99851.94;4455316;32;34813;-85
2021/05/27 09:04:32;;;;;;;;;;;;;;;24.33;33.42;99845.84;4455660;32;35353;-86
2021/05/27 09:07:01;;;;;;;1.98;0.70;;;;;;;24.57;32.06;99856.91;4455487;32;34970;-85
2021/05/27 09:09:51;;;;;;;2.15;0.68;;;;;;;24.36;31.46;99851.00;4442974;32;32983;-86
2021/05/27 09:12:29;;;;;;;1.60;0.57;;;;;;;24.49;32.35;99846.69;4456388;32;34565;-85
2021/05/27 09:15:03;;;;;;;2.75;0.50;;;;;;;24.45;32.38;99839.84;4455613;32;35204;-85
2021/05/27 09:17:52;;;;;;;2.05;0.82;;;;;;;24.76;30.58;99850.50;4442586;32;33981;-85
2021/05/27 09:20:21;;;;;;;4.43;0.50;;;;;;;24.57;31.82;99840.97;4453619;32;33531;-85
2021/05/27 09:23:06;;;;;;;1.77;0.60;;;;;;;24.72;31.60;99838.28;4455228;32;34998;-85
2021/05/27 09:25:38;;;;;;;4.43;0.80;;;;;;;24.53;32.23;99842.91;4456248;32;35433;-85
2021/05/27 09:28:06;;;;;;;4.37;0.60;;;;;;;24.72;31.18;99843.59;4430132;32;33385;-85
2021/05/27 09:30:56;;;;;;;3.22;0.60;;;;;;;24.80;31.50;99836.06;4455144;32;33702;-85
2021/05/27 09:33:36;;;;;;;1.92;0.70;;;;;;;24.81;30.84;99842.25;4469105;32;33859;-85
2021/05/27 09:36:04;;;;;;;2.00;0.55;;;;;;;25.02;30.69;99834.81;4457935;32;34421;-87
2021/05/27 09:38:35;;;;;;;0.20;0.20;;;;;;;25.15;30.94;99841.16;4470571;32;35261;-88
2021/05/27 09:41:23;;;;;;;1.17;0.60;;;;;;;25.07;28.00;99843.41;4457863;32;33069;-88
2021/05/27 09:43:56;;;;;;;1.87;0.60;;;;;;;25.06;29.59;99833.69;4458162;32;34533;-88
2021/05/27 09:46:24;;;;;;;1.20;0.30;;;;;;;25.08;30.02;99845.12;4457777;32;35432;-88
2021/05/27 09:49:06;;;;;;;2.28;0.80;;;;;;;25.09;28.45;99834.37;4470797;32;34078;-89
2021/05/27 09:51:34;;;;;;;0.62;0.40;;;;;;;25.38;31.38;99827.31;4442328;32;33452;-90
2021/05/27 09:54:03;;;;;;;0.93;0.40;;;;;;;25.32;30.80;99833.00;4442676;32;34679;-88
2021/05/27 09:56:33;;;;;;;0.62;0.43;;;;;;;25.36;30.50;99835.41;4455647;32;34394;-88
2021/05/27 09:59:11;;;;;;;0.98;0.40;;;;;;;25.54;30.78;99839.66;4430827;32;33433;-89
2021/05/27 10:01:40;;;;;;;2.50;0.50;;;;;;;25.59;30.12;99842.03;4454994;32;33349;-89
2021/05/27 10:04:17;;;;;;;0.60;0.50;;;;;;;25.69;29.77;99832.53;4442231;32;33401;-89
2021/05/27 10:06:45;;;;;;;1.77;0.50;;;;;;;25.63;29.16;99830.22;4470517;32;34641;-88
2021/05/27 10:09:14;;;;;;;0.82;0.40;;;;;;;25.80;28.96;99838.03;4470421;32;34718;-88
2021/05/27 10:11:42;;;;;;;0.60;0.30;;;;;;;25.91;27.55;99832.91;4470461;32;33401;-88
2021/05/27 10:14:10;;;;;;;1.40;0.47;;;;;;;26.04;29.85;99828.53;4470448;32;35085;-88
2021/05/27 10:16:38;;;;;;;0.80;0.50;;;;;;;25.92;30.18;99826.63;4470347;32;35800;-89
2021/05/27 10:19:06;;;;;;;1.30;0.40;;;;;;;25.73;30.51;99828.72;4457628;32;34896;-88
2021/05/27 10:21:37;;;;;;;2.90;0.80;;;;;;;25.69;30.66;99824.53;4442085;32;33200;-90
2021/05/27 10:24:07;;;;;;;3.58;0.50;;;;;;;25.66;30.31;99830.06;4444467;32;33470;-90
2021/05/27 10:26:35;;;;;;;1.85;0.60;;;;;;;25.37;30.78;99828.25;4432004;32;33940;-89
2021/05/27 10:29:23;;;;;;;1.55;0.70;;;;;;;25.62;31.41;99825.00;4449262;32;33952;-89
2021/05/27 10:31:52;;;;;;;1.23;0.60;;;;;;;25.90;29.11;99825.87;4432235;32;33054;-90
2021/05/27 10:34:42;;;;;;;0.90;0.57;;;;;;;25.66;30.85;99831.84;4444868;32;33869;-90
2021/05/27 10:37:11;;;;;;;2.33;0.50;;;;;;;25.64;29.95;99829.28;4446465;32;34405;-89
2021/05/27 10:39:39;;;;;;;1.50;0.50;;;;;;;25.86;29.89;99828.84;4455555;32;34329;-89
2021/05/27 10:42:07;;;;;;;0.45;0.30;;;;;;;25.76;30.36;99817.87;4455876;32;34602;-89
2021/05/27 10:44:58;;;;;;;1.25;0.50;;;;;;;25.81;30.17;99814.94;4429332;32;34652;-89
2021/05/27 10:47:25;;;;;;;0.95;0.30;;;;;;;25.61;29.96;99813.50;4455529;32;34262;-90
2021/05/27 10:49:54;;;;;;;1.60;0.40;;;;;;;25.41;30.46;99817.31;4446322;32;33958;-90
2021/05/27 10:52:33;;;;;;;1.85;0.60;;;;;;;25.40;29.65;99820.09;4457433;32;33430;-88
2021/05/27 10:55:05;;;;;;;1.33;0.50;;;;;;;25.25;30.43;99813.88;4426321;32;33789;-88
2021/05/27 10:57:40;;;;;;;1.08;0.40;;;;;;;25.44;31.00;99814.53;4426404;32;34442;-88
2021/05/27 11:00:17;;;;;;;1.00;0.30;;;;;;;25.38;30.95;99809.56;4439984;32;34241;-87
2021/05/27 11:02:45;;;;;;;1.92;0.65;;;;;;;25.33;32.30;99803.63;4439780;32;33427;-88
2021/05/27 11:05:17;;;;;;;3.58;0.73;;;;;;;25.58;30.55;99807.50;4455311;32;35112;-87
2021/05/27 11:08:16;;;;;;;2.33;0.60;;;;;;;25.50;31.73;99810.63;4428670;32;35185;-88
2021/05/27 11:10:45;;;;;;;1.30;0.50;;;;;;;25.57;30.42;99804.00;4441004;32;33713;-88
2021/05/27 11:13:12;;;;;;;0.60;0.50;;;;;;;25.31;31.46;99799.34;4440855;32;32677;-88
2021/05/27 11:16:02;;;;;;;3.12;0.50;;;;;;;25.15;31.29;99810.03;4454892;32;34593;-88
2021/05/27 11:18:36;;;;;;;1.17;0.55;;;;;;;25.18;32.83;99801.03;4441094;32;35243;-88
2021/05/27 11:21:33;;;;;;;1.95;0.45;;;;;;;25.33;32.92;99808.97;4428841;32;33428;-88
2021/05/27 11:24:33;;;;;;;1.52;0.90;;;;;;;25.52;31.19;99803.41;4452876;32;34574;-89
2021/05/27 11:27:26;;;;;;;2.17;0.55;;;;;;;25.35;32.94;99792.88;4470614;32;34055;-88
2021/05/27 11:30:22;;;;;;;1.58;0.65;;;;;;;25.63;31.99;99805.41;4456584;32;34378;-89
2021/05/27 11:32:55;;;;;;;1.83;0.60;;;;;;;25.63;31.56;99800.94;4470780;32;34275;-89
2021/05/27 11:35:25;;;;;;;1.02;0.57;;;;;;;25.57;32.85;99796.00;4456791;32;32809;-89
2021/05/27 11:37:54;;;;;;;1.23;0.47;;;;;;;25.49;31.72;99796.47;4431400;32;32939;-89
2021/05/27 11:40:27;;;;;;;1.77;0.47;;;;;;;25.50;31.87;99800.00;4456617;32;35321;-89
2021/05/27 11:42:57;;;;;;;1.05;0.60;;;;;;;25.40;32.71;99794.34;4456852;32;33893;-90
2021/05/27 11:45:30;;;;;;;3.55;0.57;;;;;;;25.48;31.79;99789.41;4449330;32;32911;-91
2021/05/27 11:48:24;;;;;;;1.55;0.60;;;;;;;25.53;31.83;99795.31;4469717;32;33791;-90
2021/05/27 11:51:16;;;;;;;0.70;0.60;;;;;;;25.65;32.56;99792.88;4470439;32;35740;-89
2021/05/27 11:53:50;;;;;;;0.85;0.40;;;;;;;25.64;31.55;99789.34;4469797;32;33819;-90